EDT,Max TemperatureF,Mean TemperatureF,Min TemperatureF,Max Dew PointF,MeanDew PointF,Min DewpointF,Max Humidity, Mean Humidity, Min Humidity, Max Sea Level PressureIn, Mean Sea Level PressureIn, Min Sea Level PressureIn, Max VisibilityMiles, Mean VisibilityMiles, Min VisibilityMiles, Max Wind SpeedMPH, Mean Wind SpeedMPH, Max Gust SpeedMPH,PrecipitationIn, CloudCover, Events, WindDirDegrees
2013-10-1,79,65,51,63,57,51,100,89,56,30.11,30.06,30.03,10,4,0,8,1,,0.01,3,Fog,240
2013-10-2,79,66,55,68,58,54,100,91,68,30.14,30.09,30.06,7,3,0,4,0,,0.00,2,Fog,200
2013-10-3,82,72,64,70,67,64,100,92,60,30.11,30.08,30.01,10,4,1,7,1,,0.38,6,Rain-Thunderstorm,196
2013-10-4,82,71,60,70,64,60,100,92,62,30.10,30.06,30.03,10,4,0,6,0,,0.00,2,Fog-Rain,154
2013-10-5,82,72,64,72,68,63,97,88,67,30.07,30.02,29.96,10,8,2,7,2,,0.24,4,Rain,188
2013-10-6,73,64,55,68,63,52,100,94,78,29.97,29.85,29.73,10,6,1,13,4,24,2.46,8,Rain-Thunderstorm,232
2013-10-7,63,54,43,52,45,42,97,77,50,30.19,29.99,29.86,10,10,10,10,5,,0.01,4,Rain,259
2013-10-8,69,52,37,49,41,37,100,83,40,30.30,30.24,30.19,10,7,0,12,1,16,0.00,1,Fog,84
2013-10-9,73,57,41,50,45,39,97,75,38,30.27,30.22,30.18,10,10,5,7,1,,0.00,0,,75
2013-10-10,73,55,37,51,44,37,97,75,33,30.22,30.17,30.10,10,9,2,5,0,,0.00,0,,12
2013-10-11,79,60,42,57,48,41,100,76,38,30.14,30.08,30.04,10,9,2,5,0,,0.00,0,,70
2013-10-12,80,62,46,60,52,45,96,81,40,30.13,30.09,30.06,10,8,2,4,0,,0.00,0,,80
2013-10-13,75,62,48,60,53,43,100,87,44,30.32,30.23,30.14,10,5,0,9,1,,0.01,2,Fog,9
2013-10-14,72,56,41,50,45,39,93,71,41,30.36,30.29,30.20,10,10,10,9,3,,0.00,0,,49
2013-10-15,77,62,48,64,58,46,100,87,64,30.19,30.07,29.96,10,7,2,7,1,,0.03,6,Rain,191
2013-10-16,70,58,45,63,56,43,94,82,52,29.99,29.94,29.90,10,9,4,12,3,,0.03,6,Rain,249
2013-10-17,55,46,37,50,43,37,100,89,72,30.01,29.95,29.90,10,7,1,8,1,16,0.14,5,Rain,255
2013-10-18,68,50,35,49,39,34,100,86,42,30.07,30.01,29.96,10,4,0,10,1,17,0.00,1,Fog,225
2013-10-19,51,44,36,45,42,34,93,85,66,30.03,29.93,29.87,10,8,2,17,5,22,0.16,6,Rain,293
2013-10-20,64,48,33,42,38,31,96,72,43,30.06,30.03,30.00,10,9,5,10,3,20,0.00,0,,172
2013-10-21,69,53,37,48,42,35,97,71,39,30.04,29.98,29.91,10,10,8,13,5,21,0.00,4,Rain,213
2013-10-22,55,42,30,41,32,24,89,65,32,30.08,29.99,29.88,10,10,8,15,7,23,0.04,4,Rain,297
2013-10-23,48,40,35,40,35,27,93,80,49,30.08,29.92,29.77,10,9,4,16,8,22,0.17,8,Rain,333
2013-10-24,45,40,37,36,34,30,93,82,62,30.30,30.16,30.07,10,10,8,18,5,16,0.05,8,Rain,260
2013-10-25,52,39,28,33,28,25,92,73,38,30.47,30.39,30.31,10,10,8,7,3,,0.00,2,,266
2013-10-26,55,40,26,39,30,22,92,69,45,30.30,30.12,29.97,10,10,10,10,3,22,0.00,4,,221
2013-10-27,59,42,28,39,31,27,100,80,38,30.14,30.10,30.07,10,8,0,6,0,,0.00,1,Fog,240
2013-10-28,63,44,26,39,32,24,92,74,35,30.33,30.24,30.13,10,9,5,6,1,,0.00,0,Snow,347
2013-10-29,57,44,30,48,39,28,93,82,62,30.40,30.31,30.24,10,9,6,4,0,,0.01,2,Rain,73
2013-10-30,64,57,50,63,56,48,100,95,88,30.22,30.14,30.01,6,3,1,5,0,,0.18,8,Rain,112
2013-10-31,66,62,57,63,60,54,96,87,70,30.01,29.61,29.37,10,6,2,26,8,39,0.91,7,Rain,196